Portada
METAR-TAF:

METAR-TAF

Aeroports :

Belém, Pará, Brasil

latitud: 01-23S, longitud: 048-29W, altitud: 16 m

Observació

L'informe es va fer fa 1 hora i 9 minuts, a les 16:00 UTC
Vent 8 kt del Est, variant entre Nord i Sud-Est
Temperatura 33°C
Humitat 49%
Pressió 1009 hPa
Visibilitat 10 km o més
Núvols disperses a una alçada de 4600 ft

METAR: SBBE 151600Z 10008KT 010V140 9999 SCT046 33/21 Q1009

Hora: 14:09 (17:09 UTC)

Pronòstic

L'informe es va fer fa 8 hores i 9 minuts, a les 09:00 UTC
Pronòstic vàlid del 15 a les 12 UTC al 16 a les 12 UTC
Vent 8 kt del Est/Nord-Est
Visibilitat 10 km o més
Núvols disperses a una alçada de 2000 ft
Evolucionant progressivament
l' 15 a les 22 UTC al A3 a les /A UTC
Visibilitat 10 km o més
sense núvols per sota de 1500 mi sense presència de cumulonimbus.

TAF: SBBE 150900Z 1512/1612 07008KT 9999 SCT020 TX33/1516Z TN23/1604Z BECMG 1522/A3/A121524 CAVOK RMK PEU

Observacions i pronòstics meteorològics de més de 4000 aeroports (METAR i TAF).

Les estacions disponibles són els punts grocs i vermells al mapa.

Posi el ratolí al punt desitjat per veure el nom de l'estació.

Feu clic per veure les observacions i els pronòstics meteorològics.

Per canviar el mapa: feu clic els botons verds amb una creu de color negre per apropar; al botó verd amb un guió per allunyar la imatge; o en les fletxes verdes per a mapes adjacents.


METAR-TAF: